EmailTwitter


Observations de surface / Québec / LFRK

Régions: Québec | Canada | États-Unis | Europe | France | UK | Elsewhere
Station
Affichage
Infos & localisation pour LFRK | Aide pour décoder les METARs

Observations prises le 2017-05-24 à 05H30 UTC à CAEN/CARPIQUET(A, FR (LFRK)

Température: 14.0 Celsius

Point de rosée: 14.0 Celsius

Humidité relative: 100%

Vents: Variable à 6 km/h ou 3 noeuds.

Pression au niveau moyen de la mer: 102.60 kilopascals.

Observation METAR:

LFRK 240530Z AUTO VRB03KT 3600 BR OVC004 14/14 Q1026 BECMG 9999 NSW BKN008=